00:56 Bike Schwaz - Kundl
Ort Schwaz Datum 29.09.2010 07:08:33
Kategorie MTB
Distanz 26,68 Kilometer Steigung 25,7 Meter Gefälle -36,4 Meter
Gesamt Zeit 00:56:14 Aktiv 00:56:14 Pause 00:00:00
Durchs. Tempo 28,5 km/h Tempo max. 36,9 km/h Tempo min. 14,6 km/h
Kalorien 0 Durchs. HF 152 BPM HF max. 167 BPM
Wetter 15 °C ChanceRain
Ausrüstung Schwalbe - Nobby Nic vorne
Schwalbe - Racing Ralph hinten
Shimano - HG-93 XT
Specialized - BG S-Works MTB
Specialized - Stumpjumper Comp
SwissStop - Disc17 Avid Juicy
Notiz Schwaz - Kundl ... zum Start 8° und Regen, windstill ... garmin connect
Splits
Distanz (km) Gesamt Zeit Split Zeit Split Tempo Split Tempo Höhenprofil (m)
1,00 00:02:25 00:02:25 00:02:25 24,8 5,00
2,00 00:04:25 00:02:00 00:02:00 30,0 0,00
3,00 00:06:31 00:02:06 00:02:06 28,6 -0,05
4,00 00:09:10 00:02:39 00:02:39 22,6 3,41
5,00 00:10:56 00:01:46 00:01:46 34,0 -13,36
6,00 00:13:12 00:02:16 00:02:16 26,5 11,66
7,00 00:15:39 00:02:27 00:02:27 24,5 12,43
8,00 00:17:50 00:02:11 00:02:11 27,5 -31,76
9,00 00:19:52 00:02:02 00:02:02 29,5 -1,11
10,00 00:21:51 00:01:59 00:01:59 30,3 -0,22
11,00 00:23:47 00:01:56 00:01:56 31,0 -1,46
12,00 00:25:51 00:02:04 00:02:04 29,0 1,46
13,00 00:28:17 00:02:26 00:02:26 24,7 0,27
14,00 00:30:24 00:02:07 00:02:07 28,3 -3,87
15,00 00:32:23 00:01:59 00:01:59 30,3 -1,40
16,00 00:34:25 00:02:02 00:02:02 29,5 -0,98
17,00 00:36:33 00:02:08 00:02:08 28,1 -1,02
18,00 00:38:39 00:02:06 00:02:06 28,6 4,97
19,00 00:40:42 00:02:03 00:02:03 29,3 -4,63
20,00 00:42:43 00:02:01 00:02:01 29,8 -2,45
21,00 00:44:44 00:02:01 00:02:01 29,8 -0,88
22,00 00:46:43 00:01:59 00:01:59 30,3 0,00
23,00 00:48:41 00:01:58 00:01:58 30,5 0,00
24,00 00:50:37 00:01:56 00:01:56 31,0 0,00
25,00 00:52:32 00:01:55 00:01:55 31,3 0,00
26,00 00:54:31 00:01:59 00:01:59 30,3 -1,00